sensor_id;sensor_type;location;lat;lon;timestamp;P1;durP1;ratioP1;P2;durP2;ratioP2
51738;SDS011;37815;52.692;6.226;2023-08-21T00:01:23;3.92;;;2.00;;
51738;SDS011;37815;52.692;6.226;2023-08-21T00:06:24;2.93;;;1.93;;
51738;SDS011;37815;52.692;6.226;2023-08-21T00:11:24;3.47;;;1.63;;
51738;SDS011;37815;52.692;6.226;2023-08-21T00:16:25;2.90;;;1.70;;
51738;SDS011;37815;52.692;6.226;2023-08-21T00:21:28;3.07;;;1.80;;
51738;SDS011;37815;52.692;6.226;2023-08-21T00:26:29;4.27;;;1.83;;
51738;SDS011;37815;52.692;6.226;2023-08-21T00:31:29;2.90;;;1.60;;
51738;SDS011;37815;52.692;6.226;2023-08-21T00:36:30;2.70;;;1.70;;
51738;SDS011;37815;52.692;6.226;2023-08-21T00:41:31;3.38;;;1.85;;
51738;SDS011;37815;52.692;6.226;2023-08-21T00:46:34;2.67;;;1.63;;
51738;SDS011;37815;52.692;6.226;2023-08-21T00:51:34;3.17;;;1.90;;
51738;SDS011;37815;52.692;6.226;2023-08-21T00:56:35;3.83;;;1.70;;
51738;SDS011;37815;52.692;6.226;2023-08-21T01:01:36;2.40;;;1.58;;
51738;SDS011;37815;52.692;6.226;2023-08-21T01:06:37;2.70;;;1.83;;
51738;SDS011;37815;52.692;6.226;2023-08-21T01:11:53;3.90;;;1.70;;
51738;SDS011;37815;52.692;6.226;2023-08-21T01:17:05;3.25;;;1.60;;
51738;SDS011;37815;52.692;6.226;2023-08-21T01:22:08;3.85;;;1.60;;
51738;SDS011;37815;52.692;6.226;2023-08-21T01:27:09;4.33;;;1.67;;
51738;SDS011;37815;52.692;6.226;2023-08-21T01:32:30;2.53;;;1.35;;
51738;SDS011;37815;52.692;6.226;2023-08-21T01:37:39;2.15;;;1.60;;
51738;SDS011;37815;52.692;6.226;2023-08-21T01:42:40;3.42;;;1.50;;
51738;SDS011;37815;52.692;6.226;2023-08-21T01:47:40;2.33;;;1.40;;
51738;SDS011;37815;52.692;6.226;2023-08-21T01:52:41;2.15;;;1.33;;
51738;SDS011;37815;52.692;6.226;2023-08-21T01:57:41;2.50;;;1.48;;
51738;SDS011;37815;52.692;6.226;2023-08-21T02:02:42;2.40;;;1.63;;
51738;SDS011;37815;52.692;6.226;2023-08-21T02:07:43;2.83;;;1.60;;
51738;SDS011;37815;52.692;6.226;2023-08-21T02:12:43;3.63;;;1.60;;
51738;SDS011;37815;52.692;6.226;2023-08-21T02:17:44;2.75;;;1.40;;
51738;SDS011;37815;52.692;6.226;2023-08-21T02:22:44;3.05;;;1.73;;
51738;SDS011;37815;52.692;6.226;2023-08-21T02:27:46;2.73;;;1.90;;
51738;SDS011;37815;52.692;6.226;2023-08-21T02:32:47;3.27;;;1.40;;
51738;SDS011;37815;52.692;6.226;2023-08-21T02:37:47;1.70;;;1.50;;
51738;SDS011;37815;52.692;6.226;2023-08-21T02:42:48;3.00;;;1.77;;
51738;SDS011;37815;52.692;6.226;2023-08-21T02:47:48;2.10;;;1.70;;
51738;SDS011;37815;52.692;6.226;2023-08-21T02:52:49;3.67;;;2.00;;
51738;SDS011;37815;52.692;6.226;2023-08-21T02:57:50;2.67;;;1.80;;
51738;SDS011;37815;52.692;6.226;2023-08-21T03:02:50;2.80;;;1.70;;
51738;SDS011;37815;52.692;6.226;2023-08-21T03:07:51;2.23;;;1.50;;
51738;SDS011;37815;52.692;6.226;2023-08-21T03:12:52;2.75;;;1.60;;
51738;SDS011;37815;52.692;6.226;2023-08-21T03:17:53;2.70;;;1.77;;
51738;SDS011;37815;52.692;6.226;2023-08-21T03:22:53;2.83;;;1.80;;
51738;SDS011;37815;52.692;6.226;2023-08-21T03:27:54;2.73;;;1.70;;
51738;SDS011;37815;52.692;6.226;2023-08-21T03:32:54;2.30;;;1.70;;
51738;SDS011;37815;52.692;6.226;2023-08-21T03:37:55;3.00;;;1.60;;
51738;SDS011;37815;52.692;6.226;2023-08-21T03:42:56;2.33;;;1.60;;
51738;SDS011;37815;52.692;6.226;2023-08-21T03:47:56;1.40;;;1.30;;
51738;SDS011;37815;52.692;6.226;2023-08-21T03:52:57;2.17;;;1.58;;
51738;SDS011;37815;52.692;6.226;2023-08-21T03:57:58;2.78;;;1.75;;
51738;SDS011;37815;52.692;6.226;2023-08-21T04:02:58;1.93;;;1.50;;
51738;SDS011;37815;52.692;6.226;2023-08-21T04:07:59;1.97;;;1.60;;
51738;SDS011;37815;52.692;6.226;2023-08-21T04:12:59;2.63;;;1.50;;
51738;SDS011;37815;52.692;6.226;2023-08-21T04:18:00;2.60;;;1.70;;
51738;SDS011;37815;52.692;6.226;2023-08-21T04:23:07;2.90;;;1.80;;
51738;SDS011;37815;52.692;6.226;2023-08-21T04:28:08;1.73;;;1.63;;
51738;SDS011;37815;52.692;6.226;2023-08-21T04:33:09;2.43;;;1.40;;
51738;SDS011;37815;52.692;6.226;2023-08-21T04:38:09;2.30;;;1.45;;
51738;SDS011;37815;52.692;6.226;2023-08-21T04:43:10;2.33;;;1.53;;
51738;SDS011;37815;52.692;6.226;2023-08-21T04:48:11;2.27;;;1.53;;
51738;SDS011;37815;52.692;6.226;2023-08-21T04:53:11;3.43;;;1.67;;
51738;SDS011;37815;52.692;6.226;2023-08-21T04:58:13;2.73;;;1.50;;
51738;SDS011;37815;52.692;6.226;2023-08-21T05:03:14;1.83;;;1.40;;
51738;SDS011;37815;52.692;6.226;2023-08-21T05:08:15;2.25;;;1.45;;
51738;SDS011;37815;52.692;6.226;2023-08-21T05:13:15;2.08;;;1.50;;
51738;SDS011;37815;52.692;6.226;2023-08-21T05:18:17;1.63;;;1.40;;
51738;SDS011;37815;52.692;6.226;2023-08-21T05:23:18;1.70;;;1.33;;
51738;SDS011;37815;52.692;6.226;2023-08-21T05:28:19;3.10;;;1.40;;
51738;SDS011;37815;52.692;6.226;2023-08-21T05:33:19;1.70;;;1.40;;
51738;SDS011;37815;52.692;6.226;2023-08-21T05:38:20;2.42;;;1.45;;
51738;SDS011;37815;52.692;6.226;2023-08-21T05:43:21;1.67;;;1.27;;
51738;SDS011;37815;52.692;6.226;2023-08-21T05:48:21;2.22;;;1.40;;
51738;SDS011;37815;52.692;6.226;2023-08-21T05:53:22;1.97;;;1.43;;
51738;SDS011;37815;52.692;6.226;2023-08-21T05:58:23;1.97;;;1.30;;
51738;SDS011;37815;52.692;6.226;2023-08-21T06:03:24;2.25;;;1.50;;
51738;SDS011;37815;52.692;6.226;2023-08-21T06:08:24;1.97;;;1.50;;
51738;SDS011;37815;52.692;6.226;2023-08-21T06:13:25;2.10;;;1.60;;
51738;SDS011;37815;52.692;6.226;2023-08-21T06:18:26;2.30;;;1.40;;
51738;SDS011;37815;52.692;6.226;2023-08-21T06:23:27;2.08;;;1.40;;
51738;SDS011;37815;52.692;6.226;2023-08-21T06:28:28;1.92;;;1.50;;
51738;SDS011;37815;52.692;6.226;2023-08-21T06:33:28;2.50;;;1.70;;
51738;SDS011;37815;52.692;6.226;2023-08-21T06:38:29;3.85;;;1.48;;
51738;SDS011;37815;52.692;6.226;2023-08-21T06:43:30;2.30;;;1.55;;
51738;SDS011;37815;52.692;6.226;2023-08-21T06:48:30;1.90;;;1.40;;
51738;SDS011;37815;52.692;6.226;2023-08-21T06:53:31;2.53;;;1.60;;
51738;SDS011;37815;52.692;6.226;2023-08-21T06:58:32;2.90;;;1.73;;
51738;SDS011;37815;52.692;6.226;2023-08-21T07:03:33;2.15;;;1.45;;
51738;SDS011;37815;52.692;6.226;2023-08-21T07:08:33;3.17;;;2.07;;
51738;SDS011;37815;52.692;6.226;2023-08-21T07:13:34;2.23;;;1.60;;
51738;SDS011;37815;52.692;6.226;2023-08-21T07:18:35;3.40;;;1.70;;
51738;SDS011;37815;52.692;6.226;2023-08-21T07:23:36;2.60;;;1.60;;
51738;SDS011;37815;52.692;6.226;2023-08-21T07:28:36;2.57;;;1.43;;
51738;SDS011;37815;52.692;6.226;2023-08-21T07:33:37;2.37;;;1.70;;
51738;SDS011;37815;52.692;6.226;2023-08-21T07:38:38;2.57;;;1.70;;
51738;SDS011;37815;52.692;6.226;2023-08-21T07:43:41;2.73;;;1.63;;
51738;SDS011;37815;52.692;6.226;2023-08-21T07:48:43;3.57;;;1.80;;
51738;SDS011;37815;52.692;6.226;2023-08-21T07:53:45;2.03;;;1.52;;
51738;SDS011;37815;52.692;6.226;2023-08-21T07:58:46;2.67;;;1.60;;
51738;SDS011;37815;52.692;6.226;2023-08-21T08:03:46;2.58;;;1.90;;
51738;SDS011;37815;52.692;6.226;2023-08-21T08:08:47;3.63;;;1.80;;
51738;SDS011;37815;52.692;6.226;2023-08-21T08:13:47;2.93;;;1.80;;
51738;SDS011;37815;52.692;6.226;2023-08-21T08:18:48;2.40;;;1.60;;
51738;SDS011;37815;52.692;6.226;2023-08-21T08:23:49;3.30;;;1.60;;
51738;SDS011;37815;52.692;6.226;2023-08-21T08:28:49;3.65;;;1.70;;
51738;SDS011;37815;52.692;6.226;2023-08-21T08:33:50;5.40;;;1.80;;
51738;SDS011;37815;52.692;6.226;2023-08-21T08:38:51;3.50;;;1.80;;
51738;SDS011;37815;52.692;6.226;2023-08-21T08:43:52;4.03;;;1.90;;
51738;SDS011;37815;52.692;6.226;2023-08-21T08:48:57;7.85;;;2.60;;
51738;SDS011;37815;52.692;6.226;2023-08-21T08:54:00;8.32;;;2.45;;
51738;SDS011;37815;52.692;6.226;2023-08-21T08:59:01;5.77;;;2.20;;
51738;SDS011;37815;52.692;6.226;2023-08-21T09:04:02;5.10;;;1.95;;
51738;SDS011;37815;52.692;6.226;2023-08-21T09:09:03;5.32;;;1.80;;
51738;SDS011;37815;52.692;6.226;2023-08-21T09:14:04;4.72;;;1.80;;
51738;SDS011;37815;52.692;6.226;2023-08-21T09:19:05;6.20;;;1.83;;
51738;SDS011;37815;52.692;6.226;2023-08-21T09:24:06;4.50;;;2.00;;
51738;SDS011;37815;52.692;6.226;2023-08-21T09:29:07;3.95;;;1.45;;
51738;SDS011;37815;52.692;6.226;2023-08-21T09:34:08;5.18;;;1.60;;
51738;SDS011;37815;52.692;6.226;2023-08-21T09:39:14;5.30;;;1.67;;
51738;SDS011;37815;52.692;6.226;2023-08-21T09:44:17;4.80;;;1.60;;
51738;SDS011;37815;52.692;6.226;2023-08-21T09:49:18;5.53;;;1.80;;
51738;SDS011;37815;52.692;6.226;2023-08-21T09:54:20;6.20;;;2.00;;
51738;SDS011;37815;52.692;6.226;2023-08-21T09:59:21;7.40;;;1.95;;
51738;SDS011;37815;52.692;6.226;2023-08-21T10:04:25;4.90;;;1.90;;
51738;SDS011;37815;52.692;6.226;2023-08-21T10:09:27;4.82;;;1.70;;
51738;SDS011;37815;52.692;6.226;2023-08-21T10:14:29;4.90;;;1.60;;
51738;SDS011;37815;52.692;6.226;2023-08-21T10:19:30;4.53;;;1.50;;
51738;SDS011;37815;52.692;6.226;2023-08-21T10:24:35;3.60;;;1.60;;
51738;SDS011;37815;52.692;6.226;2023-08-21T10:29:38;4.50;;;1.20;;
51738;SDS011;37815;52.692;6.226;2023-08-21T10:34:39;8.10;;;1.55;;
51738;SDS011;37815;52.692;6.226;2023-08-21T10:39:56;2.80;;;1.13;;
51738;SDS011;37815;52.692;6.226;2023-08-21T10:44:57;3.83;;;1.30;;
51738;SDS011;37815;52.692;6.226;2023-08-21T10:50:03;3.37;;;1.20;;
51738;SDS011;37815;52.692;6.226;2023-08-21T10:55:06;4.50;;;1.40;;
51738;SDS011;37815;52.692;6.226;2023-08-21T11:00:10;5.27;;;1.30;;
51738;SDS011;37815;52.692;6.226;2023-08-21T11:05:18;4.30;;;1.23;;
51738;SDS011;37815;52.692;6.226;2023-08-21T11:10:22;5.90;;;1.13;;
51738;SDS011;37815;52.692;6.226;2023-08-21T11:15:24;5.10;;;1.20;;
51738;SDS011;37815;52.692;6.226;2023-08-21T11:20:29;3.13;;;1.00;;
51738;SDS011;37815;52.692;6.226;2023-08-21T11:25:31;3.92;;;1.25;;
51738;SDS011;37815;52.692;6.226;2023-08-21T11:30:31;3.90;;;1.20;;
51738;SDS011;37815;52.692;6.226;2023-08-21T11:35:33;4.13;;;1.30;;
51738;SDS011;37815;52.692;6.226;2023-08-21T11:40:36;6.60;;;1.30;;
51738;SDS011;37815;52.692;6.226;2023-08-21T11:45:37;5.13;;;1.45;;
51738;SDS011;37815;52.692;6.226;2023-08-21T11:50:38;3.70;;;1.37;;
51738;SDS011;37815;52.692;6.226;2023-08-21T11:55:39;6.45;;;1.20;;
51738;SDS011;37815;52.692;6.226;2023-08-21T12:00:40;5.88;;;1.30;;
51738;SDS011;37815;52.692;6.226;2023-08-21T12:05:45;3.50;;;1.20;;
51738;SDS011;37815;52.692;6.226;2023-08-21T12:10:49;4.97;;;1.30;;
51738;SDS011;37815;52.692;6.226;2023-08-21T12:15:52;3.28;;;1.10;;
51738;SDS011;37815;52.692;6.226;2023-08-21T12:20:53;3.83;;;1.20;;
51738;SDS011;37815;52.692;6.226;2023-08-21T12:25:53;4.00;;;1.20;;
51738;SDS011;37815;52.692;6.226;2023-08-21T12:30:54;3.60;;;1.30;;
51738;SDS011;37815;52.692;6.226;2023-08-21T12:35:54;7.90;;;1.30;;
51738;SDS011;37815;52.692;6.226;2023-08-21T12:40:55;3.50;;;1.30;;
51738;SDS011;37815;52.692;6.226;2023-08-21T12:45:56;2.55;;;1.40;;
51738;SDS011;37815;52.692;6.226;2023-08-21T12:50:57;5.22;;;1.33;;
51738;SDS011;37815;52.692;6.226;2023-08-21T12:55:57;4.15;;;1.40;;
51738;SDS011;37815;52.692;6.226;2023-08-21T13:00:58;3.47;;;1.30;;
51738;SDS011;37815;52.692;6.226;2023-08-21T13:05:59;4.00;;;1.23;;
51738;SDS011;37815;52.692;6.226;2023-08-21T13:10:59;3.27;;;1.30;;
51738;SDS011;37815;52.692;6.226;2023-08-21T13:16:00;5.03;;;1.40;;
51738;SDS011;37815;52.692;6.226;2023-08-21T13:21:01;4.40;;;1.40;;
51738;SDS011;37815;52.692;6.226;2023-08-21T13:26:02;2.90;;;1.20;;
51738;SDS011;37815;52.692;6.226;2023-08-21T13:31:02;3.85;;;1.27;;
51738;SDS011;37815;52.692;6.226;2023-08-21T13:36:03;2.75;;;1.10;;
51738;SDS011;37815;52.692;6.226;2023-08-21T13:41:04;2.10;;;1.00;;
51738;SDS011;37815;52.692;6.226;2023-08-21T13:46:04;3.20;;;1.17;;
51738;SDS011;37815;52.692;6.226;2023-08-21T13:51:05;3.28;;;1.40;;
51738;SDS011;37815;52.692;6.226;2023-08-21T13:56:05;3.30;;;1.30;;
51738;SDS011;37815;52.692;6.226;2023-08-21T14:01:06;4.03;;;1.40;;
51738;SDS011;37815;52.692;6.226;2023-08-21T14:06:08;3.35;;;1.58;;
51738;SDS011;37815;52.692;6.226;2023-08-21T14:11:11;5.67;;;1.20;;
51738;SDS011;37815;52.692;6.226;2023-08-21T14:16:12;3.50;;;1.30;;
51738;SDS011;37815;52.692;6.226;2023-08-21T14:21:13;3.38;;;1.40;;
51738;SDS011;37815;52.692;6.226;2023-08-21T14:26:13;4.40;;;1.25;;
51738;SDS011;37815;52.692;6.226;2023-08-21T14:31:14;3.80;;;1.40;;
51738;SDS011;37815;52.692;6.226;2023-08-21T14:36:14;3.35;;;1.33;;
51738;SDS011;37815;52.692;6.226;2023-08-21T14:41:16;5.57;;;1.30;;
51738;SDS011;37815;52.692;6.226;2023-08-21T14:46:17;3.45;;;1.30;;
51738;SDS011;37815;52.692;6.226;2023-08-21T14:51:18;3.03;;;1.03;;
51738;SDS011;37815;52.692;6.226;2023-08-21T14:56:19;3.63;;;1.00;;
51738;SDS011;37815;52.692;6.226;2023-08-21T15:01:21;1.50;;;0.80;;
51738;SDS011;37815;52.692;6.226;2023-08-21T15:06:21;1.83;;;0.60;;
51738;SDS011;37815;52.692;6.226;2023-08-21T15:11:22;2.15;;;0.85;;
51738;SDS011;37815;52.692;6.226;2023-08-21T15:16:23;1.73;;;0.80;;
51738;SDS011;37815;52.692;6.226;2023-08-21T15:21:25;1.88;;;0.88;;
51738;SDS011;37815;52.692;6.226;2023-08-21T15:26:26;2.83;;;0.90;;
51738;SDS011;37815;52.692;6.226;2023-08-21T15:31:26;3.10;;;0.90;;
51738;SDS011;37815;52.692;6.226;2023-08-21T15:36:27;3.70;;;1.00;;
51738;SDS011;37815;52.692;6.226;2023-08-21T15:41:28;2.50;;;0.90;;
51738;SDS011;37815;52.692;6.226;2023-08-21T15:46:28;2.63;;;1.00;;
51738;SDS011;37815;52.692;6.226;2023-08-21T15:51:29;4.53;;;1.17;;
51738;SDS011;37815;52.692;6.226;2023-08-21T15:56:29;4.47;;;2.10;;
51738;SDS011;37815;52.692;6.226;2023-08-21T16:01:30;4.15;;;1.50;;
51738;SDS011;37815;52.692;6.226;2023-08-21T16:06:31;3.10;;;1.10;;
51738;SDS011;37815;52.692;6.226;2023-08-21T16:11:31;4.38;;;1.20;;
51738;SDS011;37815;52.692;6.226;2023-08-21T16:16:32;4.47;;;1.57;;
51738;SDS011;37815;52.692;6.226;2023-08-21T16:21:33;5.85;;;1.20;;
51738;SDS011;37815;52.692;6.226;2023-08-21T16:26:34;4.17;;;1.60;;
51738;SDS011;37815;52.692;6.226;2023-08-21T16:31:34;5.73;;;1.60;;
51738;SDS011;37815;52.692;6.226;2023-08-21T16:36:35;4.55;;;1.30;;
51738;SDS011;37815;52.692;6.226;2023-08-21T16:41:36;4.20;;;1.30;;
51738;SDS011;37815;52.692;6.226;2023-08-21T16:46:36;9.20;;;3.50;;
51738;SDS011;37815;52.692;6.226;2023-08-21T16:51:37;5.50;;;2.08;;
51738;SDS011;37815;52.692;6.226;2023-08-21T16:56:37;5.97;;;2.40;;
51738;SDS011;37815;52.692;6.226;2023-08-21T17:01:38;6.13;;;2.03;;
51738;SDS011;37815;52.692;6.226;2023-08-21T17:06:39;7.15;;;2.60;;
51738;SDS011;37815;52.692;6.226;2023-08-21T17:11:39;8.02;;;2.50;;
51738;SDS011;37815;52.692;6.226;2023-08-21T17:16:40;6.00;;;1.97;;
51738;SDS011;37815;52.692;6.226;2023-08-21T17:21:41;5.97;;;1.80;;
51738;SDS011;37815;52.692;6.226;2023-08-21T17:26:42;5.13;;;1.70;;
51738;SDS011;37815;52.692;6.226;2023-08-21T17:31:43;7.03;;;2.00;;
51738;SDS011;37815;52.692;6.226;2023-08-21T17:36:44;4.97;;;1.80;;
51738;SDS011;37815;52.692;6.226;2023-08-21T17:41:47;4.80;;;1.70;;
51738;SDS011;37815;52.692;6.226;2023-08-21T17:46:48;10.70;;;1.90;;
51738;SDS011;37815;52.692;6.226;2023-08-21T17:51:49;5.93;;;1.90;;
51738;SDS011;37815;52.692;6.226;2023-08-21T17:56:50;6.23;;;2.20;;
51738;SDS011;37815;52.692;6.226;2023-08-21T18:01:51;5.63;;;2.33;;
51738;SDS011;37815;52.692;6.226;2023-08-21T18:06:53;4.40;;;2.03;;
51738;SDS011;37815;52.692;6.226;2023-08-21T18:11:53;7.27;;;2.40;;
51738;SDS011;37815;52.692;6.226;2023-08-21T18:17:00;9.07;;;2.50;;
51738;SDS011;37815;52.692;6.226;2023-08-21T18:22:09;7.03;;;2.60;;
51738;SDS011;37815;52.692;6.226;2023-08-21T18:27:09;5.20;;;2.20;;
51738;SDS011;37815;52.692;6.226;2023-08-21T18:32:10;4.27;;;1.77;;
51738;SDS011;37815;52.692;6.226;2023-08-21T18:37:10;4.57;;;1.73;;
51738;SDS011;37815;52.692;6.226;2023-08-21T18:42:11;7.15;;;1.67;;
51738;SDS011;37815;52.692;6.226;2023-08-21T18:47:12;5.03;;;1.58;;
51738;SDS011;37815;52.692;6.226;2023-08-21T18:52:12;5.63;;;1.77;;
51738;SDS011;37815;52.692;6.226;2023-08-21T18:57:13;4.20;;;1.60;;
51738;SDS011;37815;52.692;6.226;2023-08-21T19:02:14;3.08;;;1.38;;
51738;SDS011;37815;52.692;6.226;2023-08-21T19:07:15;3.27;;;1.70;;
51738;SDS011;37815;52.692;6.226;2023-08-21T19:12:15;4.53;;;1.73;;
51738;SDS011;37815;52.692;6.226;2023-08-21T19:17:16;5.75;;;1.80;;
51738;SDS011;37815;52.692;6.226;2023-08-21T19:22:17;3.97;;;1.90;;
51738;SDS011;37815;52.692;6.226;2023-08-21T19:27:17;4.93;;;1.70;;
51738;SDS011;37815;52.692;6.226;2023-08-21T19:32:18;4.43;;;1.73;;
51738;SDS011;37815;52.692;6.226;2023-08-21T19:37:19;4.00;;;1.80;;
51738;SDS011;37815;52.692;6.226;2023-08-21T19:42:19;4.95;;;2.00;;
51738;SDS011;37815;52.692;6.226;2023-08-21T19:47:22;4.30;;;1.87;;
51738;SDS011;37815;52.692;6.226;2023-08-21T19:52:23;4.23;;;1.70;;
51738;SDS011;37815;52.692;6.226;2023-08-21T19:57:23;6.30;;;1.90;;
51738;SDS011;37815;52.692;6.226;2023-08-21T20:02:24;4.20;;;1.90;;
51738;SDS011;37815;52.692;6.226;2023-08-21T20:07:25;5.03;;;1.98;;
51738;SDS011;37815;52.692;6.226;2023-08-21T20:12:25;3.70;;;2.13;;
51738;SDS011;37815;52.692;6.226;2023-08-21T20:17:26;4.10;;;2.30;;
51738;SDS011;37815;52.692;6.226;2023-08-21T20:22:28;5.30;;;2.78;;
51738;SDS011;37815;52.692;6.226;2023-08-21T20:27:29;4.60;;;3.00;;
51738;SDS011;37815;52.692;6.226;2023-08-21T20:32:30;5.17;;;3.30;;
51738;SDS011;37815;52.692;6.226;2023-08-21T20:37:30;7.65;;;3.53;;
51738;SDS011;37815;52.692;6.226;2023-08-21T20:42:32;6.95;;;3.58;;
51738;SDS011;37815;52.692;6.226;2023-08-21T20:47:32;7.17;;;3.40;;
51738;SDS011;37815;52.692;6.226;2023-08-21T20:52:33;7.17;;;3.50;;
51738;SDS011;37815;52.692;6.226;2023-08-21T20:57:34;7.13;;;3.70;;
51738;SDS011;37815;52.692;6.226;2023-08-21T21:02:35;7.87;;;4.30;;
51738;SDS011;37815;52.692;6.226;2023-08-21T21:07:36;6.65;;;4.10;;
51738;SDS011;37815;52.692;6.226;2023-08-21T21:12:37;8.20;;;4.23;;
51738;SDS011;37815;52.692;6.226;2023-08-21T21:17:37;7.33;;;4.10;;
51738;SDS011;37815;52.692;6.226;2023-08-21T21:22:38;7.07;;;3.80;;
51738;SDS011;37815;52.692;6.226;2023-08-21T21:27:38;6.63;;;3.63;;
51738;SDS011;37815;52.692;6.226;2023-08-21T21:32:39;7.18;;;3.25;;
51738;SDS011;37815;52.692;6.226;2023-08-21T21:37:40;6.15;;;3.50;;
51738;SDS011;37815;52.692;6.226;2023-08-21T21:42:41;6.30;;;3.10;;
51738;SDS011;37815;52.692;6.226;2023-08-21T21:47:41;4.53;;;2.97;;
51738;SDS011;37815;52.692;6.226;2023-08-21T21:52:42;5.50;;;2.70;;
51738;SDS011;37815;52.692;6.226;2023-08-21T21:57:42;5.33;;;3.20;;
51738;SDS011;37815;52.692;6.226;2023-08-21T22:02:43;5.43;;;3.40;;
51738;SDS011;37815;52.692;6.226;2023-08-21T22:07:44;4.50;;;3.07;;
51738;SDS011;37815;52.692;6.226;2023-08-21T22:12:44;5.15;;;3.17;;
51738;SDS011;37815;52.692;6.226;2023-08-21T22:17:45;5.10;;;3.10;;
51738;SDS011;37815;52.692;6.226;2023-08-21T22:22:46;4.67;;;3.30;;
51738;SDS011;37815;52.692;6.226;2023-08-21T22:27:47;5.83;;;3.20;;
51738;SDS011;37815;52.692;6.226;2023-08-21T22:32:49;5.70;;;3.25;;
51738;SDS011;37815;52.692;6.226;2023-08-21T22:37:49;4.80;;;3.20;;
51738;SDS011;37815;52.692;6.226;2023-08-21T22:42:51;5.13;;;3.33;;
51738;SDS011;37815;52.692;6.226;2023-08-21T22:47:51;4.50;;;3.08;;
51738;SDS011;37815;52.692;6.226;2023-08-21T22:52:52;5.57;;;3.40;;
51738;SDS011;37815;52.692;6.226;2023-08-21T22:57:53;5.90;;;3.53;;
51738;SDS011;37815;52.692;6.226;2023-08-21T23:02:53;5.47;;;3.37;;
51738;SDS011;37815;52.692;6.226;2023-08-21T23:07:54;4.73;;;3.17;;
51738;SDS011;37815;52.692;6.226;2023-08-21T23:12:58;4.20;;;3.15;;
51738;SDS011;37815;52.692;6.226;2023-08-21T23:17:59;5.97;;;3.72;;
51738;SDS011;37815;52.692;6.226;2023-08-21T23:22:59;4.20;;;3.37;;
51738;SDS011;37815;52.692;6.226;2023-08-21T23:28:00;5.37;;;3.27;;
51738;SDS011;37815;52.692;6.226;2023-08-21T23:33:01;5.80;;;3.63;;
51738;SDS011;37815;52.692;6.226;2023-08-21T23:38:02;4.70;;;3.30;;
51738;SDS011;37815;52.692;6.226;2023-08-21T23:43:07;4.57;;;3.60;;
51738;SDS011;37815;52.692;6.226;2023-08-21T23:48:08;4.30;;;3.40;;
51738;SDS011;37815;52.692;6.226;2023-08-21T23:53:08;4.68;;;3.20;;
51738;SDS011;37815;52.692;6.226;2023-08-21T23:58:09;4.87;;;3.40;;
